^^
Station Historical Data
Daily Summary for January 7, 2017 Units:  English    Metric   Both
« Previous Day
Next Day »
Daily Weekly Monthly Yearly Custom
  High: Low: Average:
Temperature: 23.8 °F 17.5 °F 20.7 °F
Dew Point: 16.5 °F 5.2 °F 10.7 °F
Humidity: 87 % 57 % 65 %
Wind Speed: 12.9 mph 0.0 mph 4.2 mph
Wind Gust: 18.4 mph - -
Wind:- - SSW
Pressure: 30.37 in 30.19 in -
Precipitation: 0.00 in    
Historical Graphs
 
 
Tabular Data for January 7, 2017
Time Temperature Dew Point Pressure Wind Wind Speed Wind Gust Humidity Rainfall Rate (Hourly) solar Conditions
00:00 20.6 °F 11.4 °F 30.32 in WNW 0.7 mph 2.0 mph 67 % 0.00 in 0.0 W/m2 CLR
00:05 20.8 °F 11.6 °F 30.31 in Calm     67 % 0.00 in 0.0 W/m2 RA
00:10 20.9 °F 11.3 °F 30.32 in Calm     66 % 0.00 in 0.0 W/m2 CLR
00:15 21.0 °F 11.1 °F 30.32 in WNW 1.4 mph 3.5 mph 65 % 0.00 in 0.0 W/m2 CLR
00:20 21.1 °F 11.2 °F 30.32 in WNW 0.5 mph 2.3 mph 65 % 0.00 in 0.0 W/m2 CLR
00:25 21.0 °F 11.1 °F 30.31 in Calm     65 % 0.00 in 0.0 W/m2 CLR
00:30 21.1 °F 11.2 °F 30.32 in Calm   2.3 mph 65 % 0.00 in 0.0 W/m2 CLR
00:35 21.1 °F 11.2 °F 30.32 in Calm     65 % 0.00 in 0.0 W/m2 CLR
00:40 21.0 °F 11.1 °F 30.31 in Calm     65 % 0.00 in 0.0 W/m2 CLR
00:45 21.1 °F 11.2 °F 30.31 in WNW 0.7 mph 2.3 mph 65 % 0.00 in 0.0 W/m2 CLR
00:50 21.1 °F 11.2 °F 30.29 in NW 2.5 mph 4.6 mph 65 % 0.00 in 0.0 W/m2 CLR
00:55 21.1 °F 11.2 °F 30.29 in NW 0.1 mph 2.0 mph 65 % 0.00 in 0.0 W/m2 CLR
01:00 21.0 °F 11.1 °F 30.30 in Calm     65 % 0.00 in 0.0 W/m2 CLR
01:05 21.1 °F 11.2 °F 30.32 in NW 0.1 mph 1.2 mph 65 % 0.00 in 0.0 W/m2 CLR
01:10 21.1 °F 11.2 °F 30.32 in NW 1.5 mph 3.5 mph 65 % 0.00 in 0.0 W/m2 CLR
01:15 21.1 °F 11.2 °F 30.33 in NW 1.8 mph 3.5 mph 65 % 0.00 in 0.0 W/m2 CLR
01:20 21.2 °F 11.6 °F 30.33 in NW 0.9 mph 3.5 mph 66 % 0.00 in 0.0 W/m2 CLR
01:25 21.2 °F 11.3 °F 30.33 in NW 1.6 mph 3.5 mph 65 % 0.00 in 0.0 W/m2 CLR
01:30 21.2 °F 11.3 °F 30.32 in NW 1.2 mph 2.3 mph 65 % 0.00 in 0.0 W/m2 CLR
01:35 21.1 °F 11.2 °F 30.33 in NW 0.6 mph 2.3 mph 65 % 0.00 in 0.0 W/m2 CLR
01:40 21.2 °F 11.3 °F 30.33 in NW 2.7 mph 4.6 mph 65 % 0.00 in 0.0 W/m2 CLR
01:45 21.3 °F 11.4 °F 30.33 in NW 1.2 mph 4.0 mph 65 % 0.00 in 0.0 W/m2 CLR
01:50 21.2 °F 11.3 °F 30.34 in NNW 4.8 mph 8.1 mph 65 % 0.00 in 0.0 W/m2 CLR
01:55 21.2 °F 11.3 °F 30.35 in NW 3.8 mph 8.1 mph 65 % 0.00 in 0.0 W/m2 CLR
02:00 21.3 °F 11.4 °F 30.34 in NW 1.3 mph 3.5 mph 65 % 0.00 in 0.0 W/m2 CLR
02:05 21.2 °F 11.3 °F 30.33 in NNW 2.2 mph 3.5 mph 65 % 0.00 in 0.0 W/m2 CLR
02:10 21.2 °F 11.3 °F 30.32 in NNW 3.1 mph 4.6 mph 65 % 0.00 in 0.0 W/m2 CLR
02:15 21.2 °F 11.3 °F 30.32 in NNW 4.4 mph 6.9 mph 65 % 0.00 in 0.0 W/m2 CLR
02:20 21.2 °F 11.3 °F 30.32 in NNW 0.2 mph 3.5 mph 65 % 0.00 in 0.0 W/m2 CLR
02:25 21.2 °F 11.3 °F 30.33 in NNW 1.8 mph 4.6 mph 65 % 0.00 in 0.0 W/m2 CLR
02:30 21.2 °F 11.3 °F 30.33 in NW 1.0 mph 3.5 mph 65 % 0.00 in 0.0 W/m2 CLR
02:35 21.2 °F 11.3 °F 30.33 in NNW 1.0 mph 3.5 mph 65 % 0.00 in 0.0 W/m2 CLR
02:40 21.2 °F 11.3 °F 30.34 in NW 1.9 mph 3.5 mph 65 % 0.00 in 0.0 W/m2 CLR
02:45 21.2 °F 11.3 °F 30.33 in NNW 1.3 mph 4.0 mph 65 % 0.00 in 0.0 W/m2 CLR
02:50 21.2 °F 11.3 °F 30.33 in NNW 2.4 mph 3.5 mph 65 % 0.00 in 0.0 W/m2 CLR
02:55 21.2 °F 11.3 °F 30.34 in NNW 1.2 mph 3.5 mph 65 % 0.00 in 0.0 W/m2 CLR
03:00 21.2 °F 11.3 °F 30.34 in NNW 2.1 mph 3.5 mph 65 % 0.00 in 0.0 W/m2 CLR
03:05 21.2 °F 11.3 °F 30.33 in North 0.9 mph 1.2 mph 65 % 0.00 in 0.0 W/m2 CLR
03:10 21.1 °F 11.2 °F 30.33 in North 2.6 mph 3.5 mph 65 % 0.00 in 0.0 W/m2 CLR
03:15 21.2 °F 11.6 °F 30.34 in Calm     66 % 0.00 in 0.0 W/m2 CLR
03:20 21.2 °F 11.6 °F 30.34 in North 0.9 mph 1.0 mph 66 % 0.00 in 0.0 W/m2 CLR
03:25 21.2 °F 11.6 °F 30.34 in Calm   2.3 mph 66 % 0.00 in 0.0 W/m2 CLR
03:30 21.2 °F 11.3 °F 30.34 in Calm     65 % 0.00 in 0.0 W/m2 CLR
03:35 21.2 °F 11.3 °F 30.35 in North 0.2 mph 2.0 mph 65 % 0.00 in 0.0 W/m2 CLR
03:40 21.2 °F 11.3 °F 30.35 in NNW 1.5 mph 4.0 mph 65 % 0.00 in 0.0 W/m2 CLR
03:45 21.2 °F 11.3 °F 30.35 in NNW 0.6 mph 2.3 mph 65 % 0.00 in 0.0 W/m2 CLR
03:50 21.3 °F 11.4 °F 30.35 in North 1.6 mph 3.0 mph 65 % 0.00 in 0.0 W/m2 CLR
03:55 21.3 °F 11.4 °F 30.35 in NNW 0.9 mph 2.0 mph 65 % 0.00 in 0.0 W/m2 CLR
04:00 21.3 °F 11.4 °F 30.35 in North 2.1 mph 4.6 mph 65 % 0.00 in 0.0 W/m2 CLR
04:06 21.3 °F 11.4 °F 30.35 in North 1.5 mph 3.5 mph 65 % 0.00 in 0.0 W/m2 CLR
04:11 21.3 °F 11.4 °F 30.35 in North 0.5 mph 3.5 mph 65 % 0.00 in 0.0 W/m2 CLR
04:16 21.3 °F 11.0 °F 30.35 in North 1.8 mph 3.0 mph 64 % 0.00 in 0.0 W/m2 CLR
04:21 21.3 °F 11.0 °F 30.35 in North 2.0 mph 4.6 mph 64 % 0.00 in 0.0 W/m2 CLR
04:26 21.3 °F 11.0 °F 30.35 in North 1.6 mph 3.5 mph 64 % 0.00 in 0.0 W/m2 CLR
04:31 21.3 °F 11.0 °F 30.35 in North 1.4 mph 3.5 mph 64 % 0.00 in 0.0 W/m2 CLR
04:36 21.3 °F 11.0 °F 30.35 in North 0.4 mph 2.3 mph 64 % 0.00 in 0.0 W/m2 CLR
04:41 21.3 °F 10.7 °F 30.34 in North 1.9 mph 4.6 mph 63 % 0.00 in 0.0 W/m2 CLR
04:46 21.2 °F 10.6 °F 30.34 in NNE 1.4 mph 3.5 mph 63 % 0.00 in 0.0 W/m2 CLR
04:51 21.2 °F 10.6 °F 30.34 in North 2.4 mph 3.5 mph 63 % 0.00 in 0.0 W/m2 CLR
04:56 21.2 °F 10.6 °F 30.33 in North 5.1 mph 8.1 mph 63 % 0.00 in 0.0 W/m2 CLR
05:01 21.1 °F 10.5 °F 30.33 in North 2.3 mph 3.5 mph 63 % 0.00 in 0.0 W/m2 CLR
05:06 21.1 °F 10.5 °F 30.33 in NNE 4.7 mph 8.1 mph 63 % 0.00 in 0.0 W/m2 CLR
05:11 21.1 °F 10.5 °F 30.33 in NNE 2.6 mph 3.5 mph 63 % 0.00 in 0.0 W/m2 CLR
05:16 21.1 °F 10.5 °F 30.33 in NNE 4.2 mph 8.1 mph 63 % 0.00 in 0.0 W/m2 CLR
05:21 21.1 °F 10.5 °F 30.33 in NNE 3.4 mph 3.5 mph 63 % 0.00 in 0.0 W/m2 CLR
05:26 21.0 °F 10.4 °F 30.33 in North 2.9 mph 5.8 mph 63 % 0.00 in 0.0 W/m2 CLR
05:31 21.0 °F 10.0 °F 30.33 in NNE 5.5 mph 9.2 mph 62 % 0.00 in 0.0 W/m2 CLR
05:36 21.1 °F 10.1 °F 30.33 in NNE 3.4 mph 6.9 mph 62 % 0.00 in 0.0 W/m2 CLR
05:41 21.0 °F 10.4 °F 30.32 in North 3.1 mph 4.0 mph 63 % 0.00 in 0.0 W/m2 CLR
05:46 21.1 °F 10.5 °F 30.31 in North 1.7 mph 3.5 mph 63 % 0.00 in 0.0 W/m2 CLR
05:51 21.0 °F 10.0 °F 30.32 in North 3.8 mph 5.8 mph 62 % 0.00 in 0.0 W/m2 CLR
05:56 21.0 °F 10.4 °F 30.32 in North 3.0 mph 6.9 mph 63 % 0.00 in 0.0 W/m2 CLR
06:01 21.0 °F 10.4 °F 30.32 in NNE 3.8 mph 8.1 mph 63 % 0.00 in 0.0 W/m2 CLR
06:06 21.0 °F 10.4 °F 30.32 in NNE 3.3 mph 4.6 mph 63 % 0.00 in 0.0 W/m2 CLR
06:11 21.0 °F 10.4 °F 30.32 in North 2.7 mph 4.6 mph 63 % 0.00 in 0.0 W/m2 CLR
06:16 21.0 °F 10.4 °F 30.31 in NNE 2.9 mph 4.6 mph 63 % 0.00 in 0.0 W/m2 CLR
06:21 21.0 °F 10.4 °F 30.31 in NNE 4.1 mph 5.8 mph 63 % 0.00 in 0.0 W/m2 CLR
06:26 21.0 °F 10.4 °F 30.31 in NNE 2.7 mph 4.0 mph 63 % 0.00 in 0.0 W/m2 CLR
06:31 21.0 °F 10.4 °F 30.32 in NNE 3.6 mph 4.6 mph 63 % 0.00 in 0.0 W/m2 CLR
06:36 20.9 °F 10.3 °F 30.32 in NNE 4.0 mph 6.9 mph 63 % 0.00 in 0.0 W/m2 CLR
06:41 20.9 °F 10.6 °F 30.32 in North 1.7 mph 3.5 mph 64 % 0.00 in 0.0 W/m2 CLR
06:46 20.9 °F 10.3 °F 30.32 in NNE 4.5 mph 8.1 mph 63 % 0.00 in 0.0 W/m2 CLR
06:51 20.9 °F 10.6 °F 30.32 in North 2.3 mph 4.6 mph 64 % 0.00 in 0.0 W/m2 CLR
06:56 20.9 °F 10.6 °F 30.31 in NNE 3.3 mph 3.5 mph 64 % 0.00 in 0.0 W/m2 CLR
07:01 20.9 °F 10.6 °F 30.31 in NNE 1.5 mph 3.5 mph 64 % 0.00 in 0.0 W/m2 OVC
07:06 20.9 °F 10.6 °F 30.31 in North 5.1 mph 9.2 mph 64 % 0.00 in 0.0 W/m2 OVC
07:12 20.9 °F 10.3 °F 30.31 in NNE 7.4 mph 9.0 mph 63 % 0.00 in 0.0 W/m2 OVC
07:17 20.8 °F 10.2 °F 30.31 in NNE 3.5 mph 6.9 mph 63 % 0.00 in 0.0 W/m2 OVC
07:22 20.8 °F 10.2 °F 30.31 in NE 7.9 mph 10.4 mph 63 % 0.00 in 0.0 W/m2 OVC
07:27 20.7 °F 10.1 °F 30.31 in NE 6.1 mph 9.2 mph 63 % 0.00 in 0.0 W/m2 OVC
07:32 20.8 °F 10.2 °F 30.32 in NNE 4.7 mph 6.0 mph 63 % 0.00 in 0.0 W/m2 OVC
07:37 20.8 °F 10.2 °F 30.33 in NNE 4.0 mph 5.8 mph 63 % 0.00 in 0.0 W/m2 OVC
07:42 20.8 °F 10.2 °F 30.32 in NNE 5.2 mph 8.1 mph 63 % 0.00 in 0.0 W/m2 OVC
07:47 20.7 °F 10.1 °F 30.33 in NE 3.7 mph 9.2 mph 63 % 0.00 in 0.0 W/m2 OVC
07:52 20.7 °F 10.1 °F 30.33 in NNE 3.0 mph 8.1 mph 63 % 0.00 in 0.0 W/m2 OVC
07:57 20.7 °F 10.1 °F 30.33 in NE 5.9 mph 8.1 mph 63 % 0.00 in 5.0 W/m2 OVC
08:02 20.6 °F 10.3 °F 30.33 in NNE 5.1 mph 5.8 mph 64 % 0.00 in 7.0 W/m2 OVC
08:07 20.6 °F 10.7 °F 30.33 in NNE 4.2 mph 4.6 mph 65 % 0.00 in 9.0 W/m2 OVC
08:12 20.6 °F 10.7 °F 30.33 in NNE 1.9 mph 5.0 mph 65 % 0.00 in 9.0 W/m2 OVC
08:17 20.6 °F 11.0 °F 30.32 in NNE 4.9 mph 5.8 mph 66 % 0.00 in 11.0 W/m2 OVC
08:22 20.4 °F 11.2 °F 30.32 in NNE 6.3 mph 9.2 mph 67 % 0.00 in 16.0 W/m2 OVC
08:27 20.3 °F 11.4 °F 30.32 in NNE 6.0 mph 9.2 mph 68 % 0.00 in 21.0 W/m2 OVC
08:32 20.2 °F 11.7 °F 30.33 in NE 4.3 mph 6.9 mph 69 % 0.00 in 23.0 W/m2 BKN
08:37 20.1 °F 11.9 °F 30.34 in NE 5.9 mph 10.0 mph 70 % 0.00 in 25.0 W/m2 BKN
08:42 19.8 °F 12.5 °F 30.33 in NNE 7.7 mph 10.4 mph 73 % 0.00 in 25.0 W/m2 OVC
08:47 19.5 °F 13.2 °F 30.33 in NE 6.8 mph 10.4 mph 76 % 0.00 in 28.0 W/m2 OVC
08:52 19.3 °F 13.3 °F 30.33 in NE 2.2 mph 3.5 mph 77 % 0.00 in 30.0 W/m2 OVC
08:57 19.1 °F 13.4 °F 30.34 in NNE 4.3 mph 5.8 mph 78 % 0.00 in 33.0 W/m2 OVC
09:02 19.1 °F 13.9 °F 30.34 in NE 5.2 mph 8.1 mph 80 % 0.00 in 35.0 W/m2 OVC
09:07 18.9 °F 14.0 °F 30.34 in NNE 4.7 mph 5.8 mph 81 % 0.00 in 37.0 W/m2 OVC
09:12 18.8 °F 13.9 °F 30.34 in NNE 4.7 mph 5.8 mph 81 % 0.00 in 40.0 W/m2 OVC
09:17 18.7 °F 14.1 °F 30.35 in NNE 2.4 mph 4.6 mph 82 % 0.00 in 40.0 W/m2 OVC
09:22 18.7 °F 14.4 °F 30.34 in NNE 3.8 mph 8.0 mph 83 % 0.00 in 39.0 W/m2 OVC
09:27 18.6 °F 14.6 °F 30.35 in NNE 3.5 mph 5.8 mph 84 % 0.00 in 44.0 W/m2 OVC
09:32 18.6 °F 14.6 °F 30.35 in NNE 2.7 mph 6.9 mph 84 % 0.00 in 51.0 W/m2 OVC
09:37 18.6 °F 14.8 °F 30.36 in NNE 0.2 mph 2.3 mph 85 % 0.00 in 49.0 W/m2 OVC
09:42 18.6 °F 14.8 °F 30.35 in NE 2.4 mph 4.6 mph 85 % 0.00 in 42.0 W/m2 OVC
09:47 18.6 °F 14.8 °F 30.35 in NNE 3.4 mph 5.0 mph 85 % 0.00 in 58.0 W/m2 OVC
09:52 18.6 °F 15.1 °F 30.36 in NNE 3.2 mph 4.0 mph 86 % 0.00 in 56.0 W/m2 OVC
09:57 18.6 °F 15.1 °F 30.35 in NNE 4.5 mph 6.9 mph 86 % 0.00 in 56.0 W/m2 OVC
10:02 18.5 °F 15.0 °F 30.37 in NNE 1.4 mph 3.5 mph 86 % 0.00 in 54.0 W/m2 OVC
10:07 18.6 °F 15.1 °F 30.36 in NNE 0.6 mph 2.3 mph 86 % 0.00 in 74.0 W/m2 OVC
10:12 18.9 °F 15.7 °F 30.35 in NNE 1.2 mph 3.0 mph 87 % 0.00 in 72.0 W/m2 BKN
10:17 19.1 °F 15.9 °F 30.35 in North 1.9 mph 4.6 mph 87 % 0.00 in 63.0 W/m2 OVC
10:22 19.0 °F 15.8 °F 30.35 in NNE 3.4 mph 3.5 mph 87 % 0.00 in 76.0 W/m2 OVC
10:27 19.1 °F 15.9 °F 30.35 in NNE 5.4 mph 8.1 mph 87 % 0.00 in 77.0 W/m2 OVC
10:32 19.0 °F 15.8 °F 30.35 in NNE 3.7 mph 4.0 mph 87 % 0.00 in 81.0 W/m2 OVC
10:37 19.0 °F 15.8 °F 30.33 in NNE 3.8 mph 4.0 mph 87 % 0.00 in 95.0 W/m2 BKN
10:42 19.1 °F 15.9 °F 30.33 in North 4.1 mph 4.1 mph 87 % 0.00 in 95.0 W/m2 BKN
10:47 19.1 °F 15.9 °F 30.33 in NE 2.7 mph 3.5 mph 87 % 0.00 in 76.0 W/m2 OVC
10:52 19.2 °F 16.0 °F 30.32 in NNE 4.5 mph 4.5 mph 87 % 0.00 in 107.0 W/m2 BKN
10:58 19.3 °F 16.1 °F 30.32 in NNE 2.3 mph 4.0 mph 87 % 0.00 in 107.0 W/m2 BKN
11:02 19.4 °F 16.2 °F 30.32 in NNE 3.7 mph 5.8 mph 87 % 0.00 in 104.0 W/m2 BKN
11:08 19.5 °F 16.3 °F 30.31 in NNE 2.1 mph 3.5 mph 87 % 0.00 in 139.0 W/m2 BKN
11:13 19.7 °F 16.2 °F 30.29 in NNE 3.2 mph 4.0 mph 86 % 0.00 in 156.0 W/m2 SCT
11:18 19.9 °F 16.4 °F 30.28 in NNE 5.1 mph 8.1 mph 86 % 0.00 in 160.0 W/m2 SCT
11:23 20.1 °F 16.3 °F 30.29 in NNE 1.5 mph 3.5 mph 85 % 0.00 in 156.0 W/m2 SCT
11:28 20.3 °F 16.2 °F 30.29 in NNE 3.0 mph 3.5 mph 84 % 0.00 in 149.0 W/m2 BKN
11:33 20.5 °F 16.4 °F 30.28 in NNE 1.0 mph 4.0 mph 84 % 0.00 in 148.0 W/m2 BKN
11:38 20.8 °F 16.5 °F 30.28 in North 2.1 mph 4.6 mph 83 % 0.00 in 149.0 W/m2 BKN
11:43 21.0 °F 16.4 °F 30.28 in NNW 5.3 mph 8.1 mph 82 % 0.00 in 144.0 W/m2 BKN
11:48 21.1 °F 16.2 °F 30.26 in North 2.6 mph 6.0 mph 81 % 0.00 in 142.0 W/m2 BKN
11:53 21.2 °F 16.0 °F 30.26 in NW 2.3 mph 5.0 mph 80 % 0.00 in 155.0 W/m2 BKN
11:58 21.3 °F 16.1 °F 30.26 in NNW 1.9 mph 3.5 mph 80 % 0.00 in 179.0 W/m2 SCT
12:03 21.3 °F 15.8 °F 30.26 in North 3.4 mph 4.6 mph 79 % 0.00 in 151.0 W/m2 SCT
12:08 21.3 °F 15.8 °F 30.26 in North 0.9 mph 2.3 mph 79 % 0.00 in 158.0 W/m2 BKN
12:13 21.3 °F 15.5 °F 30.25 in North 0.2 mph 3.0 mph 78 % 0.00 in 151.0 W/m2 BKN
12:18 21.5 °F 15.7 °F 30.24 in NNW 2.5 mph 4.6 mph 78 % 0.00 in 137.0 W/m2 BKN
12:23 21.5 °F 15.4 °F 30.25 in NNW 2.3 mph 4.6 mph 77 % 0.00 in 132.0 W/m2 BKN
12:28 21.6 °F 15.2 °F 30.25 in NW 2.4 mph 4.0 mph 76 % 0.00 in 144.0 W/m2 BKN
12:33 21.7 °F 15.0 °F 30.25 in NW 1.6 mph 3.5 mph 75 % 0.00 in 104.0 W/m2 BKN
12:38 21.9 °F 14.6 °F 30.24 in North 4.6 mph 9.0 mph 73 % 0.00 in 125.0 W/m2 BKN
12:43 22.1 °F 14.1 °F 30.23 in NNW 2.7 mph 5.8 mph 71 % 0.00 in 123.0 W/m2 BKN
12:48 22.2 °F 13.6 °F 30.21 in North 4.4 mph 8.1 mph 69 % 0.00 in 167.0 W/m2 BKN
12:53 22.3 °F 13.3 °F 30.21 in North 4.5 mph 5.8 mph 68 % 0.00 in 151.0 W/m2 BKN
12:58 22.5 °F 12.8 °F 30.23 in NNW 2.7 mph 6.9 mph 66 % 0.00 in 155.0 W/m2 SCT
13:03 22.7 °F 12.7 °F 30.23 in NNE 4.6 mph 7.0 mph 65 % 0.00 in 162.0 W/m2 BKN
13:08 22.9 °F 12.5 °F 30.22 in North 4.1 mph 6.9 mph 64 % 0.00 in 193.0 W/m2 SCT
13:13 23.0 °F 12.3 °F 30.22 in NE 6.1 mph 9.2 mph 63 % 0.00 in 179.0 W/m2 SCT
13:18 23.2 °F 11.7 °F 30.22 in North 2.9 mph 8.1 mph 61 % 0.00 in 163.0 W/m2 SCT
13:23 23.5 °F 12.0 °F 30.21 in North 3.4 mph 6.9 mph 61 % 0.00 in 185.0 W/m2 SCT
13:28 23.5 °F 12.0 °F 30.21 in NNE 4.6 mph 8.1 mph 61 % 0.00 in 167.0 W/m2 SCT
13:33 23.5 °F 11.6 °F 30.20 in NNE 6.4 mph 10.4 mph 60 % 0.00 in 162.0 W/m2 SCT
13:38 23.4 °F 11.5 °F 30.22 in North 4.2 mph 5.8 mph 60 % 0.00 in 155.0 W/m2 SCT
13:43 23.6 °F 11.4 °F 30.22 in NW 8.1 mph 12.7 mph 59 % 0.00 in 169.0 W/m2 SCT
13:48 23.5 °F 10.9 °F 30.23 in NNW 3.6 mph 10.4 mph 58 % 0.00 in 207.0 W/m2 FEW
13:53 23.7 °F 11.1 °F 30.22 in North 5.7 mph 10.4 mph 58 % 0.00 in 151.0 W/m2 SCT
13:58 23.8 °F 11.5 °F 30.20 in North 4.2 mph 9.2 mph 59 % 0.00 in 139.0 W/m2 SCT
14:03 23.7 °F 11.1 °F 30.19 in NNW 5.9 mph 8.1 mph 58 % 0.00 in 162.0 W/m2 SCT
14:08 23.7 °F 11.4 °F 30.20 in North 4.7 mph 8.0 mph 59 % 0.00 in 142.0 W/m2 SCT
14:14 23.7 °F 11.4 °F 30.19 in NW 6.6 mph 10.0 mph 59 % 0.00 in 135.0 W/m2 SCT
14:19 23.6 °F 11.0 °F 30.20 in NNW 7.0 mph 12.7 mph 58 % 0.00 in 132.0 W/m2 SCT
14:24 23.7 °F 11.4 °F 30.21 in NNW 6.1 mph 9.2 mph 59 % 0.00 in 125.0 W/m2 SCT
14:29 23.7 °F 11.4 °F 30.20 in North 5.4 mph 8.1 mph 59 % 0.00 in 114.0 W/m2 SCT
14:34 23.6 °F 11.0 °F 30.21 in NNW 7.9 mph 12.7 mph 58 % 0.00 in 111.0 W/m2 SCT
14:39 23.6 °F 11.4 °F 30.21 in NW 3.1 mph 10.4 mph 59 % 0.00 in 107.0 W/m2 SCT
14:44 23.7 °F 11.4 °F 30.21 in NW 6.6 mph 10.4 mph 59 % 0.00 in 109.0 W/m2 SCT
14:49 23.6 °F 11.7 °F 30.21 in NW 6.5 mph 10.4 mph 60 % 0.00 in 86.0 W/m2 BKN
14:54 23.5 °F 11.3 °F 30.20 in NW 4.9 mph 10.4 mph 59 % 0.00 in 93.0 W/m2 BKN
14:59 23.5 °F 11.6 °F 30.20 in NW 4.8 mph 11.5 mph 60 % 0.00 in 100.0 W/m2 SCT
15:04 23.5 °F 11.3 °F 30.20 in NW 7.9 mph 11.5 mph 59 % 0.00 in 72.0 W/m2 BKN
15:09 23.3 °F 11.1 °F 30.20 in NW 8.4 mph 13.8 mph 59 % 0.00 in 77.0 W/m2 BKN
15:14 23.1 °F 10.9 °F 30.21 in NW 7.7 mph 12.7 mph 59 % 0.00 in 70.0 W/m2 BKN
15:19 23.1 °F 11.3 °F 30.21 in NNW 4.0 mph 5.0 mph 60 % 0.00 in 60.0 W/m2 BKN
15:25 23.1 °F 11.3 °F 30.21 in NNW 5.0 mph 8.0 mph 60 % 0.00 in 53.0 W/m2 OVC
15:30 23.1 °F 10.9 °F 30.21 in NNW 6.3 mph 12.7 mph 59 % 0.00 in 46.0 W/m2 BKN
15:35 23.0 °F 10.4 °F 30.21 in NW 6.3 mph 10.4 mph 58 % 0.00 in 40.0 W/m2 BKN
15:40 23.0 °F 10.8 °F 30.21 in NW 3.7 mph 6.9 mph 59 % 0.00 in 37.0 W/m2 BKN
15:45 22.8 °F 10.6 °F 30.21 in NNW 5.0 mph 9.2 mph 59 % 0.00 in 33.0 W/m2 BKN
15:50 22.8 °F 10.6 °F 30.21 in NNW 3.8 mph 8.0 mph 59 % 0.00 in 32.0 W/m2 BKN
15:55 22.8 °F 11.0 °F 30.21 in North 6.8 mph 11.5 mph 60 % 0.00 in 26.0 W/m2 BKN
16:00 22.8 °F 10.6 °F 30.22 in NNW 4.9 mph 6.0 mph 59 % 0.00 in 28.0 W/m2 BKN
16:05 22.8 °F 10.2 °F 30.20 in NNW 8.1 mph 11.5 mph 58 % 0.00 in 28.0 W/m2 BKN
16:10 22.7 °F 10.1 °F 30.21 in NNW 6.4 mph 11.5 mph 58 % 0.00 in 23.0 W/m2 BKN
16:15 22.6 °F 9.6 °F 30.22 in NW 4.7 mph 9.2 mph 57 % 0.00 in 21.0 W/m2 SCT
16:20 22.6 °F 10.0 °F 30.21 in NW 7.5 mph 13.0 mph 58 % 0.00 in 19.0 W/m2 SCT
16:25 22.6 °F 10.0 °F 30.22 in North 5.3 mph 9.2 mph 58 % 0.00 in 14.0 W/m2 SCT
16:30 22.4 °F 9.4 °F 30.22 in NW 9.6 mph 11.5 mph 57 % 0.00 in 9.0 W/m2 SCT
16:35 22.3 °F 9.4 °F 30.22 in NW 6.1 mph 9.2 mph 57 % 0.00 in 11.0 W/m2 CLR
16:40 22.3 °F 9.7 °F 30.22 in NW 9.7 mph 15.0 mph 58 % 0.00 in 7.0 W/m2 CLR
16:45 22.2 °F 9.3 °F 30.22 in North 5.9 mph 11.5 mph 57 % 0.00 in 5.0 W/m2 OVC
16:50 22.2 °F 9.7 °F 30.22 in NNW 6.6 mph 11.5 mph 58 % 0.00 in 0.0 W/m2 OVC
16:55 22.2 °F 9.7 °F 30.22 in North 10.6 mph 15.0 mph 58 % 0.00 in 5.0 W/m2 OVC
17:00 22.1 °F 9.2 °F 30.22 in NNW 9.5 mph 15.0 mph 57 % 0.00 in 0.0 W/m2 CLR
17:05 22.1 °F 9.2 °F 30.22 in NW 5.1 mph 10.4 mph 57 % 0.00 in 0.0 W/m2 CLR
17:10 22.1 °F 9.6 °F 30.22 in North 6.6 mph 10.4 mph 58 % 0.00 in 0.0 W/m2 CLR
17:15 22.0 °F 9.1 °F 30.22 in NNW 3.7 mph 8.1 mph 57 % 0.00 in 0.0 W/m2 CLR
17:20 21.9 °F 9.4 °F 30.21 in North 6.9 mph 11.5 mph 58 % 0.00 in 0.0 W/m2 CLR
17:25 21.9 °F 9.4 °F 30.21 in NW 3.5 mph 8.1 mph 58 % 0.00 in 0.0 W/m2 CLR
17:30 21.8 °F 9.3 °F 30.21 in NW 3.7 mph 10.4 mph 58 % 0.00 in 0.0 W/m2 CLR
17:35 21.7 °F 9.2 °F 30.21 in NNW 9.8 mph 12.7 mph 58 % 0.00 in 0.0 W/m2 CLR
17:40 21.7 °F 9.2 °F 30.21 in NNW 6.5 mph 11.5 mph 58 % 0.00 in 0.0 W/m2 CLR
17:45 21.5 °F 9.0 °F 30.21 in NW 6.6 mph 12.7 mph 58 % 0.00 in 0.0 W/m2 CLR
17:50 21.4 °F 9.3 °F 30.21 in NNW 7.5 mph 10.4 mph 59 % 0.00 in 0.0 W/m2 CLR
17:55 21.3 °F 9.2 °F 30.21 in NW 7.3 mph 11.5 mph 59 % 0.00 in 0.0 W/m2 CLR
18:00 21.2 °F 9.1 °F 30.21 in NNW 5.2 mph 9.2 mph 59 % 0.00 in 0.0 W/m2 CLR
18:05 21.2 °F 9.1 °F 30.22 in NW 6.4 mph 10.4 mph 59 % 0.00 in 0.0 W/m2 CLR
18:10 21.2 °F 9.1 °F 30.22 in NNW 3.4 mph 6.9 mph 59 % 0.00 in 0.0 W/m2 CLR
18:15 21.2 °F 9.1 °F 30.22 in NW 5.7 mph 15.0 mph 59 % 0.00 in 0.0 W/m2 CLR
18:20 21.2 °F 9.1 °F 30.21 in North 4.6 mph 10.4 mph 59 % 0.00 in 0.0 W/m2 CLR
18:25 21.2 °F 8.7 °F 30.21 in NW 3.0 mph 5.8 mph 58 % 0.00 in 0.0 W/m2 CLR
18:30 21.2 °F 8.7 °F 30.21 in NW 4.4 mph 8.1 mph 58 % 0.00 in 0.0 W/m2 CLR
18:35 21.1 °F 8.6 °F 30.22 in NNW 7.2 mph 10.4 mph 58 % 0.00 in 0.0 W/m2 CLR
18:40 21.0 °F 8.5 °F 30.22 in NNW 5.4 mph 11.5 mph 58 % 0.00 in 0.0 W/m2 CLR
18:45 21.0 °F 8.1 °F 30.22 in NW 6.4 mph 8.1 mph 57 % 0.00 in 0.0 W/m2 CLR
18:50 20.9 °F 8.0 °F 30.22 in NNW 4.6 mph 10.4 mph 57 % 0.00 in 0.0 W/m2 CLR
18:55 20.8 °F 7.9 °F 30.21 in NNW 9.2 mph 10.4 mph 57 % 0.00 in 0.0 W/m2 CLR
19:00 20.8 °F 7.9 °F 30.22 in NW 1.8 mph 4.6 mph 57 % 0.00 in 0.0 W/m2 CLR
19:05 20.6 °F 7.8 °F 30.22 in NW 2.6 mph 6.0 mph 57 % 0.00 in 0.0 W/m2 CLR
19:10 20.4 °F 8.0 °F 30.22 in NW 5.4 mph 9.2 mph 58 % 0.00 in 0.0 W/m2 CLR
19:15 20.3 °F 7.5 °F 30.22 in NNW 6.0 mph 11.5 mph 57 % 0.00 in 0.0 W/m2 CLR
19:20 20.1 °F 7.7 °F 30.22 in NW 5.9 mph 9.2 mph 58 % 0.00 in 0.0 W/m2 CLR
19:25 20.0 °F 7.6 °F 30.22 in NW 5.8 mph 10.4 mph 58 % 0.00 in 0.0 W/m2 CLR
19:31 19.9 °F 7.1 °F 30.21 in NW 5.1 mph 11.5 mph 57 % 0.00 in 0.0 W/m2 CLR
19:36 19.9 °F 7.1 °F 30.21 in NW 8.1 mph 13.8 mph 57 % 0.00 in 0.0 W/m2 CLR
19:41 19.9 °F 7.1 °F 30.22 in WNW 9.4 mph 13.8 mph 57 % 0.00 in 0.0 W/m2 CLR
19:46 19.9 °F 7.1 °F 30.22 in NNW 8.0 mph 11.5 mph 57 % 0.00 in 0.0 W/m2 CLR
19:51 19.8 °F 7.0 °F 30.22 in NW 7.4 mph 11.5 mph 57 % 0.00 in 0.0 W/m2 CLR
19:56 19.7 °F 6.9 °F 30.22 in NNW 5.2 mph 10.4 mph 57 % 0.00 in 0.0 W/m2 CLR
20:01 19.7 °F 6.9 °F 30.22 in NW 5.8 mph 12.7 mph 57 % 0.00 in 0.0 W/m2 CLR
20:06 19.6 °F 7.2 °F 30.22 in NW 3.9 mph 6.0 mph 58 % 0.00 in 0.0 W/m2 CLR
20:11 19.4 °F 7.0 °F 30.23 in NW 4.1 mph 8.1 mph 58 % 0.00 in 0.0 W/m2 CLR
20:16 19.4 °F 7.0 °F 30.23 in West 4.5 mph 12.0 mph 58 % 0.00 in 0.0 W/m2 CLR
20:21 19.3 °F 6.9 °F 30.23 in WNW 7.1 mph 11.5 mph 58 % 0.00 in 0.0 W/m2 CLR
20:26 19.2 °F 6.8 °F 30.23 in NW 2.8 mph 5.8 mph 58 % 0.00 in 0.0 W/m2 CLR
20:31 19.1 °F 6.7 °F 30.23 in NW 3.8 mph 5.8 mph 58 % 0.00 in 0.0 W/m2 CLR
20:36 19.0 °F 7.0 °F 30.23 in NW 4.9 mph 9.2 mph 59 % 0.00 in 0.0 W/m2 CLR
20:41 18.9 °F 6.9 °F 30.23 in NW 6.3 mph 13.8 mph 59 % 0.00 in 0.0 W/m2 CLR
20:46 18.9 °F 6.9 °F 30.23 in WNW 7.7 mph 11.5 mph 59 % 0.00 in 0.0 W/m2 CLR
20:51 18.9 °F 6.9 °F 30.23 in NW 4.5 mph 8.1 mph 59 % 0.00 in 0.0 W/m2 CLR
20:56 18.9 °F 6.9 °F 30.23 in WNW 6.9 mph 10.4 mph 59 % 0.00 in 0.0 W/m2 CLR
21:01 18.9 °F 7.3 °F 30.24 in NNW 6.7 mph 11.5 mph 60 % 0.00 in 0.0 W/m2 CLR
21:06 18.9 °F 7.3 °F 30.24 in NNW 9.8 mph 16.0 mph 60 % 0.00 in 0.0 W/m2 CLR
21:11 19.0 °F 7.4 °F 30.24 in West 6.4 mph 12.7 mph 60 % 0.00 in 0.0 W/m2 CLR
21:16 19.0 °F 7.4 °F 30.24 in NW 4.4 mph 10.4 mph 60 % 0.00 in 0.0 W/m2 CLR
21:21 18.9 °F 7.3 °F 30.24 in WNW 4.2 mph 11.5 mph 60 % 0.00 in 0.0 W/m2 CLR
21:26 18.8 °F 6.8 °F 30.24 in WNW 4.6 mph 8.1 mph 59 % 0.00 in 0.0 W/m2 CLR
21:31 18.7 °F 7.1 °F 30.24 in WNW 4.0 mph 8.1 mph 60 % 0.00 in 0.0 W/m2 CLR
21:36 18.7 °F 7.1 °F 30.25 in WNW 5.8 mph 12.7 mph 60 % 0.00 in 0.0 W/m2 CLR
21:41 18.7 °F 7.1 °F 30.25 in WNW 5.9 mph 9.2 mph 60 % 0.00 in 0.0 W/m2 CLR
21:46 18.6 °F 7.0 °F 30.25 in WNW 5.7 mph 8.1 mph 60 % 0.00 in 0.0 W/m2 CLR
21:51 18.6 °F 7.0 °F 30.25 in WNW 4.4 mph 8.1 mph 60 % 0.00 in 0.0 W/m2 CLR
21:56 18.5 °F 6.9 °F 30.25 in NW 1.6 mph 3.5 mph 60 % 0.00 in 0.0 W/m2 CLR
22:01 18.4 °F 6.8 °F 30.25 in NW 6.9 mph 11.5 mph 60 % 0.00 in 0.0 W/m2 CLR
22:06 18.4 °F 6.8 °F 30.25 in WNW 5.0 mph 11.0 mph 60 % 0.00 in 0.0 W/m2 CLR
22:11 18.3 °F 6.7 °F 30.25 in WNW 7.1 mph 11.5 mph 60 % 0.00 in 0.0 W/m2 CLR
22:16 18.4 °F 6.8 °F 30.25 in WNW 4.1 mph 6.9 mph 60 % 0.00 in 0.0 W/m2 CLR
22:21 18.3 °F 6.7 °F 30.25 in WNW 3.4 mph 7.0 mph 60 % 0.00 in 0.0 W/m2 CLR
22:22 18.3 °F 6.7 °F 30.25 in NW 6.5 mph 11.5 mph 60 % 0.00 in 0.0 W/m2 CLR
22:27 18.2 °F 6.6 °F 30.25 in WNW 6.7 mph 8.1 mph 60 % 0.00 in 0.0 W/m2 CLR
22:32 18.1 °F 6.5 °F 30.26 in WNW 2.1 mph 6.9 mph 60 % 0.00 in 0.0 W/m2 CLR
22:37 18.0 °F 6.4 °F 30.26 in NW 4.8 mph 13.8 mph 60 % 0.00 in 0.0 W/m2 CLR
22:42 17.9 °F 6.3 °F 30.26 in WNW 8.6 mph 13.8 mph 60 % 0.00 in 0.0 W/m2 CLR
22:47 18.0 °F 6.4 °F 30.26 in NW 6.5 mph 11.5 mph 60 % 0.00 in 0.0 W/m2 CLR
22:52 18.0 °F 6.4 °F 30.25 in WNW 3.7 mph 11.5 mph 60 % 0.00 in 0.0 W/m2 CLR
22:57 18.0 °F 6.4 °F 30.25 in NW 6.0 mph 10.0 mph 60 % 0.00 in 0.0 W/m2 CLR
23:02 18.0 °F 6.4 °F 30.25 in WNW 5.6 mph 16.1 mph 60 % 0.00 in 0.0 W/m2 CLR
23:07 18.0 °F 6.4 °F 30.25 in WNW 11.3 mph 18.4 mph 60 % 0.00 in 0.0 W/m2 CLR
23:12 18.0 °F 6.4 °F 30.25 in WNW 12.9 mph 18.4 mph 60 % 0.00 in 0.0 W/m2 CLR
23:17 18.1 °F 6.2 °F 30.25 in WNW 12.4 mph 12.7 mph 59 % 0.00 in 0.0 W/m2 CLR
23:22 18.0 °F 6.1 °F 30.25 in WNW 11.8 mph 17.0 mph 59 % 0.00 in 0.0 W/m2 CLR
23:27 18.0 °F 6.1 °F 30.25 in West 6.9 mph 12.7 mph 59 % 0.00 in 0.0 W/m2 CLR
23:32 17.9 °F 6.0 °F 30.26 in WNW 10.3 mph 16.1 mph 59 % 0.00 in 0.0 W/m2 CLR
23:37 17.8 °F 5.9 °F 30.26 in WNW 8.5 mph 15.0 mph 59 % 0.00 in 0.0 W/m2 CLR
23:42 17.7 °F 5.8 °F 30.26 in West 12.0 mph 15.0 mph 59 % 0.00 in 0.0 W/m2 CLR
23:48 17.6 °F 5.3 °F 30.26 in NW 7.2 mph 10.4 mph 58 % 0.00 in 0.0 W/m2 CLR
23:53 17.6 °F 5.3 °F 30.26 in NW 7.2 mph 10.4 mph 58 % 0.00 in 0.0 W/m2 CLR
23:58 17.5 °F 5.2 °F 30.26 in WNW 5.1 mph 9.2 mph 58 % 0.00 in 0.0 W/m2 CLR
Air Products Campus Weather
Compliments of Weather Underground - 3.5 mb